Time;durP1;ratioP1;P1;durP2;ratioP2;P2;SDS_P1;SDS_P2;PMS_P1;PMS_P2;Temp;Humidity;BMP_temperature;BMP_pressure;BME280_temperature;BME280_humidity;BME280_pressure;Samples;Min_cycle;Max_cycle;Signal;HPM_P1;HPM_P2
2021/12/17 00:07:26;;;;;;;13.57;12.18;;;;;;;;;;5035653;28;20032;-52
2021/12/17 00:09:52;;;;;;;17.20;11.77;;;;;;;;;;5034921;28;20149;-52
2021/12/17 00:12:20;;;;;;;13.23;11.60;;;;;;;;;;5035468;28;20021;-56
2021/12/17 00:14:48;;;;;;;19.08;12.90;;;;;;;;;;5035228;28;20026;-54
2021/12/17 00:17:18;;;;;;;15.05;12.32;;;;;;;;;;5035195;28;20037;-53
2021/12/17 00:49:48;;;;;;;19.30;12.70;;;;;;;;;;5034110;28;20044;-56
2021/12/17 00:52:14;;;;;;;19.35;12.05;;;;;;;;;;5034562;28;20021;-50
2021/12/17 00:54:41;;;;;;;17.00;13.48;;;;;;;;;;5034520;28;20115;-54
2021/12/17 00:57:13;;;;;;;19.40;12.88;;;;;;;;;;5034562;28;20036;-54
2021/12/17 00:59:40;;;;;;;12.95;11.57;;;;;;;;;;5033888;28;20092;-52
2021/12/17 01:02:08;;;;;;;14.55;12.20;;;;;;;;;;5045008;28;20068;-53
2021/12/17 01:04:35;;;;;;;16.15;11.90;;;;;;;;;;5054304;28;20075;-55
2021/12/17 01:07:01;;;;;;;14.95;12.05;;;;;;;;;;5054096;28;20051;-53
2021/12/17 01:09:27;;;;;;;19.48;14.20;;;;;;;;;;5053405;28;20112;-52
2021/12/17 01:11:54;;;;;;;16.08;12.88;;;;;;;;;;5054460;28;20021;-53
2021/12/17 01:14:20;;;;;;;16.98;12.48;;;;;;;;;;5054128;28;20025;-55
2021/12/17 01:16:47;;;;;;;20.23;14.07;;;;;;;;;;5054261;28;20021;-55
2021/12/17 01:19:27;;;;;;;15.70;12.95;;;;;;;;;;5053281;28;20082;-52
2021/12/17 01:22:30;;;;;;;13.57;12.20;;;;;;;;;;5053928;28;20390;-54
2021/12/17 01:24:51;;;;;;;15.35;13.35;;;;;;;;;;5053654;28;20351;-54
2021/12/17 01:35:45;;;;;;;17.52;14.80;;;;;;;;;;5053501;28;20040;-54
2021/12/17 01:43:43;;;;;;;19.05;13.68;;;;;;;;;;5053895;28;20039;-53
2021/12/17 01:46:10;;;;;;;14.35;10.05;;;;;;;;;;5053498;28;20025;-57
2021/12/17 01:48:54;;;;;;;19.50;12.38;;;;;;;;;;5052885;28;20029;-52
2021/12/17 01:56:59;;;;;;;16.58;13.45;;;;;;;;;;5053343;28;20079;-53
2021/12/17 01:59:33;;;;;;;18.38;14.57;;;;;;;;;;5052473;28;20032;-54
2021/12/17 02:02:02;;;;;;;20.27;15.50;;;;;;;;;;5043957;28;20036;-52
2021/12/17 02:04:30;;;;;;;19.40;14.65;;;;;;;;;;5032564;28;20031;-51
2021/12/17 02:06:57;;;;;;;19.08;14.77;;;;;;;;;;5033284;28;20018;-54
2021/12/17 02:12:33;;;;;;;15.48;12.00;;;;;;;;;;5033396;28;20033;-51
2021/12/17 02:20:47;;;;;;;18.65;13.15;;;;;;;;;;5033128;28;20486;-52
2021/12/17 02:31:47;;;;;;;24.53;13.37;;;;;;;;;;5022292;28;20029;-55
2021/12/17 02:34:32;;;;;;;22.00;14.30;;;;;;;;;;5032616;28;20025;-56
2021/12/17 02:37:01;;;;;;;18.38;11.50;;;;;;;;;;5032437;28;20025;-51
2021/12/17 02:42:39;;;;;;;16.73;12.73;;;;;;;;;;5032909;28;20043;-54
2021/12/17 02:48:07;;;;;;;14.80;11.05;;;;;;;;;;5032099;28;20059;-52
2021/12/17 02:50:38;;;;;;;15.63;11.35;;;;;;;;;;5032575;28;20037;-53
2021/12/17 02:53:07;;;;;;;14.50;10.98;;;;;;;;;;5032509;28;20029;-53
2021/12/17 02:55:34;;;;;;;11.82;10.43;;;;;;;;;;5031968;28;20074;-53
2021/12/17 02:58:00;;;;;;;16.13;9.30;;;;;;;;;;5031855;28;20390;-51
2021/12/17 03:00:26;;;;;;;11.15;7.57;;;;;;;;;;5032307;28;20120;-53
2021/12/17 03:02:54;;;;;;;12.85;8.40;;;;;;;;;;5049039;28;20033;-50
2021/12/17 03:05:21;;;;;;;15.80;9.02;;;;;;;;;;5052086;28;20061;-55
2021/12/17 03:07:48;;;;;;;16.02;11.35;;;;;;;;;;5051523;28;20032;-56
2021/12/17 03:10:15;;;;;;;14.52;11.40;;;;;;;;;;5051699;28;20550;-53
2021/12/17 03:12:48;;;;;;;23.38;12.35;;;;;;;;;;5052289;28;20064;-54
2021/12/17 03:25:51;;;;;;;17.20;12.35;;;;;;;;;;5051718;28;20091;-56
2021/12/17 03:28:18;;;;;;;14.77;10.60;;;;;;;;;;5051613;28;20029;-54
2021/12/17 03:30:44;;;;;;;15.73;10.95;;;;;;;;;;5051871;28;20072;-56
2021/12/17 03:33:10;;;;;;;19.13;12.50;;;;;;;;;;5051853;28;20061;-55
2021/12/17 03:35:36;;;;;;;17.50;12.57;;;;;;;;;;5051880;28;20040;-55
2021/12/17 03:38:01;;;;;;;15.02;11.40;;;;;;;;;;5051160;28;20386;-56
2021/12/17 03:40:31;;;;;;;14.82;12.35;;;;;;;;;;5051703;28;20108;-56
2021/12/17 03:43:02;;;;;;;15.73;13.63;;;;;;;;;;5051881;28;20037;-56
2021/12/17 03:45:28;;;;;;;16.65;12.88;;;;;;;;;;5051610;28;20036;-55
2021/12/17 03:47:54;;;;;;;18.75;13.55;;;;;;;;;;5050934;28;20383;-54
2021/12/17 03:50:20;;;;;;;18.75;12.80;;;;;;;;;;5051936;28;20063;-56
2021/12/17 03:52:46;;;;;;;18.25;13.73;;;;;;;;;;5051779;28;20439;-55
2021/12/17 03:55:12;;;;;;;18.58;13.10;;;;;;;;;;5051774;28;20029;-55
2021/12/17 03:57:38;;;;;;;16.23;12.60;;;;;;;;;;5051400;28;20360;-56
2021/12/17 04:00:05;;;;;;;18.05;12.85;;;;;;;;;;5050617;28;20029;-56
2021/12/17 04:02:31;;;;;;;16.50;13.65;;;;;;;;;;5037526;28;20459;-57
2021/12/17 04:04:57;;;;;;;19.88;12.45;;;;;;;;;;5031867;28;20026;-54
2021/12/17 04:07:23;;;;;;;15.75;11.88;;;;;;;;;;5031639;28;20022;-56
2021/12/17 04:09:49;;;;;;;17.75;11.27;;;;;;;;;;5031136;28;20033;-54
2021/12/17 04:12:19;;;;;;;12.27;10.50;;;;;;;;;;5031540;28;20123;-55
2021/12/17 04:14:47;;;;;;;17.13;10.25;;;;;;;;;;5031249;28;20036;-55
2021/12/17 04:17:15;;;;;;;16.38;11.23;;;;;;;;;;5031540;28;20033;-55
2021/12/17 04:19:41;;;;;;;14.95;10.45;;;;;;;;;;5030993;28;20029;-56
2021/12/17 04:22:08;;;;;;;15.35;11.25;;;;;;;;;;5031612;28;20029;-55
2021/12/17 04:24:34;;;;;;;14.10;9.15;;;;;;;;;;5031453;28;20036;-54
2021/12/17 04:27:00;;;;;;;11.38;8.70;;;;;;;;;;5032865;28;20439;-57
2021/12/17 04:29:26;;;;;;;11.95;9.43;;;;;;;;;;5034264;28;20037;-56
2021/12/17 04:31:55;;;;;;;11.57;7.50;;;;;;;;;;5029985;28;20439;-51
2021/12/17 04:34:21;;;;;;;9.35;7.45;;;;;;;;;;5034916;28;20056;-52
2021/12/17 04:36:50;;;;;;;9.90;7.32;;;;;;;;;;5041939;28;20028;-56
2021/12/17 04:39:18;;;;;;;10.77;7.38;;;;;;;;;;5050727;28;20474;-54
2021/12/17 04:41:53;;;;;;;12.43;9.60;;;;;;;;;;5034537;28;20075;-54
2021/12/17 04:44:26;;;;;;;10.88;7.32;;;;;;;;;;5035015;28;20113;-53
2021/12/17 04:57:55;;;;;;;10.30;7.30;;;;;;;;;;5053593;28;20143;-51
2021/12/17 05:00:26;;;;;;;10.75;8.02;;;;;;;;;;5034511;28;20152;-55
2021/12/17 05:02:55;;;;;;;11.07;8.27;;;;;;;;;;5051480;28;20048;-53
2021/12/17 05:05:22;;;;;;;13.35;9.25;;;;;;;;;;5054543;28;20040;-51
2021/12/17 05:07:57;;;;;;;8.48;6.65;;;;;;;;;;5053718;28;20028;-56
2021/12/17 05:18:41;;;;;;;10.00;7.65;;;;;;;;;;5054150;28;20071;-55
2021/12/17 05:21:09;;;;;;;8.57;7.68;;;;;;;;;;5054117;28;20393;-56
2021/12/17 05:23:39;;;;;;;11.02;7.82;;;;;;;;;;5054356;28;20028;-53
2021/12/17 05:26:07;;;;;;;11.98;9.05;;;;;;;;;;5054338;28;20025;-54
2021/12/17 05:28:33;;;;;;;15.13;8.48;;;;;;;;;;5033687;28;20543;-50
2021/12/17 05:30:59;;;;;;;8.93;7.97;;;;;;;;;;5034157;28;20032;-54
2021/12/17 05:33:26;;;;;;;10.38;7.50;;;;;;;;;;5034011;28;20083;-54
2021/12/17 05:35:52;;;;;;;11.18;7.10;;;;;;;;;;5033944;28;20034;-52
2021/12/17 05:38:19;;;;;;;11.40;8.68;;;;;;;;;;5031896;28;20475;-53
2021/12/17 05:40:45;;;;;;;8.38;6.10;;;;;;;;;;5041884;28;20068;-51
2021/12/17 05:43:12;;;;;;;12.43;7.10;;;;;;;;;;5053266;28;20036;-51
2021/12/17 05:48:09;;;;;;;10.80;6.80;;;;;;;;;;5052879;28;20120;-56
2021/12/17 05:50:36;;;;;;;12.73;7.93;;;;;;;;;;5053486;28;20032;-52
2021/12/17 05:53:02;;;;;;;9.65;7.03;;;;;;;;;;5053579;28;20462;-53
2021/12/17 05:55:28;;;;;;;12.02;6.63;;;;;;;;;;5052063;28;20021;-55
2021/12/17 05:57:54;;;;;;;10.85;7.15;;;;;;;;;;5037702;28;20024;-55
2021/12/17 06:00:21;;;;;;;10.68;8.40;;;;;;;;;;5053243;28;20083;-53
2021/12/17 06:02:48;;;;;;;7.85;6.60;;;;;;;;;;5037162;28;20032;-54
2021/12/17 06:05:15;;;;;;;6.97;5.50;;;;;;;;;;5033125;28;20116;-53
2021/12/17 06:07:41;;;;;;;12.95;6.68;;;;;;;;;;5033289;28;20032;-54
2021/12/17 06:10:09;;;;;;;8.85;6.68;;;;;;;;;;5032854;28;20159;-54
2021/12/17 06:12:35;;;;;;;9.55;7.07;;;;;;;;;;5045524;28;20033;-52
2021/12/17 06:15:01;;;;;;;7.60;6.38;;;;;;;;;;5053362;28;20052;-52
2021/12/17 06:17:27;;;;;;;7.78;6.95;;;;;;;;;;5052947;28;20471;-52
2021/12/17 06:19:53;;;;;;;10.43;7.05;;;;;;;;;;5051601;28;20043;-55
2021/12/17 06:22:19;;;;;;;7.40;6.20;;;;;;;;;;5053213;28;20588;-55
2021/12/17 06:24:45;;;;;;;9.38;7.40;;;;;;;;;;5053061;28;20108;-56
2021/12/17 06:27:16;;;;;;;9.05;7.05;;;;;;;;;;5051842;28;20029;-54
2021/12/17 06:29:42;;;;;;;10.27;6.88;;;;;;;;;;5046129;28;20542;-55
2021/12/17 06:32:09;;;;;;;11.98;7.25;;;;;;;;;;5032542;28;20416;-53
2021/12/17 06:34:35;;;;;;;9.45;6.70;;;;;;;;;;5032348;28;20411;-52
2021/12/17 06:37:01;;;;;;;11.85;7.13;;;;;;;;;;5032985;28;20112;-56
2021/12/17 06:39:27;;;;;;;9.23;6.55;;;;;;;;;;5032214;28;20097;-55
2021/12/17 06:41:53;;;;;;;11.27;7.43;;;;;;;;;;5039998;28;20103;-55
2021/12/17 06:44:23;;;;;;;12.07;8.30;;;;;;;;;;5052334;28;20025;-53
2021/12/17 06:47:01;;;;;;;11.50;8.48;;;;;;;;;;5050668;28;20029;-54
2021/12/17 06:54:56;;;;;;;11.10;8.38;;;;;;;;;;5047248;28;20051;-53
2021/12/17 07:05:58;;;;;;;11.40;8.30;;;;;;;;;;5019950;28;20069;-57
2021/12/17 07:11:32;;;;;;;9.18;7.90;;;;;;;;;;5043196;28;20048;-52
2021/12/17 07:22:17;;;;;;;10.23;7.88;;;;;;;;;;5034325;28;20095;-53
2021/12/17 07:33:16;;;;;;;10.20;8.38;;;;;;;;;;5047370;28;20094;-52
2021/12/17 07:40:56;;;;;;;7.70;6.90;;;;;;;;;;5041047;28;20064;-56
2021/12/17 07:43:27;;;;;;;9.75;7.07;;;;;;;;;;5049700;28;20044;-56
2021/12/17 07:45:54;;;;;;;8.75;6.93;;;;;;;;;;5047857;28;20502;-57
2021/12/17 07:48:21;;;;;;;15.50;9.60;;;;;;;;;;5039336;28;20490;-56
2021/12/17 07:50:47;;;;;;;10.55;6.80;;;;;;;;;;5038609;28;20056;-56
2021/12/17 07:53:13;;;;;;;12.23;7.55;;;;;;;;;;5044557;28;20036;-52
2021/12/17 07:55:39;;;;;;;8.18;5.72;;;;;;;;;;5035791;28;20146;-54
2021/12/17 07:58:05;;;;;;;7.10;5.57;;;;;;;;;;5035267;28;20025;-55
2021/12/17 08:00:32;;;;;;;9.50;6.65;;;;;;;;;;5046732;28;20116;-54
2021/12/17 08:02:58;;;;;;;10.10;6.90;;;;;;;;;;5040066;28;20039;-53
2021/12/17 08:05:24;;;;;;;8.40;6.30;;;;;;;;;;5043124;28;20124;-55
2021/12/17 08:07:50;;;;;;;8.05;6.65;;;;;;;;;;5052593;28;20033;-54
2021/12/17 08:10:16;;;;;;;7.68;6.30;;;;;;;;;;5050245;28;20036;-52
2021/12/17 08:12:42;;;;;;;8.25;6.15;;;;;;;;;;5042742;28;20104;-56
2021/12/17 08:15:10;;;;;;;9.25;6.20;;;;;;;;;;5051851;28;20112;-56
2021/12/17 08:26:11;;;;;;;11.65;6.50;;;;;;;;;;5043353;28;20040;-56
2021/12/17 08:31:22;;;;;;;11.23;6.45;;;;;;;;;;5051342;28;20432;-54
2021/12/17 08:33:48;;;;;;;8.13;5.95;;;;;;;;;;5053595;28;20021;-56
2021/12/17 08:36:18;;;;;;;8.23;6.35;;;;;;;;;;5044253;28;20498;-56
2021/12/17 08:38:44;;;;;;;9.38;6.40;;;;;;;;;;5041361;28;20044;-56
2021/12/17 08:41:10;;;;;;;8.45;6.20;;;;;;;;;;5053291;28;20033;-54
2021/12/17 08:43:36;;;;;;;7.50;5.30;;;;;;;;;;5040026;28;20463;-52
2021/12/17 08:46:03;;;;;;;7.78;5.80;;;;;;;;;;5040011;28;20030;-51
2021/12/17 08:48:29;;;;;;;6.47;5.68;;;;;;;;;;5038777;28;20036;-50
2021/12/17 08:50:55;;;;;;;8.43;5.80;;;;;;;;;;5047898;28;20467;-53
2021/12/17 08:53:21;;;;;;;6.05;5.35;;;;;;;;;;5048492;28;20030;-53
2021/12/17 08:55:47;;;;;;;5.57;4.85;;;;;;;;;;5042567;28;20036;-51
2021/12/17 08:58:14;;;;;;;5.82;4.78;;;;;;;;;;5044120;28;20020;-52
2021/12/17 09:00:44;;;;;;;5.90;4.65;;;;;;;;;;5039884;28;20037;-53
2021/12/17 09:03:10;;;;;;;5.57;4.68;;;;;;;;;;5050251;28;20040;-53
2021/12/17 09:05:37;;;;;;;6.82;5.05;;;;;;;;;;5037992;28;20390;-50
2021/12/17 09:08:06;;;;;;;7.18;5.38;;;;;;;;;;5047566;28;20021;-53
2021/12/17 09:10:33;;;;;;;7.75;5.85;;;;;;;;;;5038562;28;20141;-51
2021/12/17 09:12:59;;;;;;;9.00;5.78;;;;;;;;;;5042599;28;20082;-54
2021/12/17 09:15:25;;;;;;;6.82;5.75;;;;;;;;;;5035767;28;20053;-54
2021/12/17 09:17:51;;;;;;;7.35;5.75;;;;;;;;;;5042428;28;20025;-53
2021/12/17 09:20:17;;;;;;;7.13;5.60;;;;;;;;;;5038294;28;20039;-54
2021/12/17 09:22:43;;;;;;;7.90;6.38;;;;;;;;;;5033532;28;20030;-54
2021/12/17 09:25:10;;;;;;;8.48;5.30;;;;;;;;;;5032066;28;20112;-54
2021/12/17 09:27:36;;;;;;;9.43;5.93;;;;;;;;;;5032225;28;20084;-54
2021/12/17 09:30:03;;;;;;;9.40;6.97;;;;;;;;;;5031643;28;20065;-51
2021/12/17 09:32:29;;;;;;;8.05;6.78;;;;;;;;;;5032642;28;20439;-53
2021/12/17 09:34:55;;;;;;;8.38;6.85;;;;;;;;;;5033049;28;20128;-54
2021/12/17 09:37:21;;;;;;;11.18;5.82;;;;;;;;;;5033373;28;20325;-55
2021/12/17 09:39:47;;;;;;;11.35;7.40;;;;;;;;;;5034070;28;20029;-54
2021/12/17 09:42:13;;;;;;;10.02;7.43;;;;;;;;;;5034198;28;20419;-54
2021/12/17 09:44:41;;;;;;;9.88;7.55;;;;;;;;;;5033973;28;20108;-55
2021/12/17 09:47:07;;;;;;;8.07;6.45;;;;;;;;;;5033801;28;20108;-55
2021/12/17 09:49:33;;;;;;;8.85;7.40;;;;;;;;;;5032990;28;20022;-52
2021/12/17 09:51:59;;;;;;;8.48;7.38;;;;;;;;;;5036214;28;20029;-53
2021/12/17 09:54:25;;;;;;;7.88;6.72;;;;;;;;;;5053080;28;20071;-54
2021/12/17 09:56:51;;;;;;;9.90;7.30;;;;;;;;;;5053694;28;20048;-51
2021/12/17 09:59:17;;;;;;;8.63;7.57;;;;;;;;;;5053094;28;20039;-53
2021/12/17 10:01:45;;;;;;;9.38;7.55;;;;;;;;;;5046047;28;20042;-53
2021/12/17 10:04:16;;;;;;;13.95;8.95;;;;;;;;;;5033707;28;20030;-55
2021/12/17 10:06:43;;;;;;;7.03;6.40;;;;;;;;;;5033215;28;20057;-52
2021/12/17 10:09:09;;;;;;;8.52;6.68;;;;;;;;;;5033788;28;20084;-51
2021/12/17 10:11:35;;;;;;;9.55;6.93;;;;;;;;;;5033409;28;20036;-51
2021/12/17 10:14:17;;;;;;;8.48;6.13;;;;;;;;;;5033083;28;20026;-55
2021/12/17 10:16:43;;;;;;;9.80;7.70;;;;;;;;;;5033429;28;20034;-55
2021/12/17 10:19:09;;;;;;;8.40;6.80;;;;;;;;;;5032337;28;20087;-52
2021/12/17 10:21:38;;;;;;;8.40;5.70;;;;;;;;;;5034267;28;20033;-54
2021/12/17 10:24:04;;;;;;;8.05;6.72;;;;;;;;;;5052827;28;20083;-55
2021/12/17 10:26:40;;;;;;;12.80;6.38;;;;;;;;;;5051856;28;20110;-55
2021/12/17 10:29:06;;;;;;;8.18;6.57;;;;;;;;;;5051080;28;20043;-54
2021/12/17 10:31:36;;;;;;;8.32;5.90;;;;;;;;;;5052720;28;20029;-55
2021/12/17 10:34:04;;;;;;;6.88;5.90;;;;;;;;;;5052674;28;20032;-52
2021/12/17 10:36:34;;;;;;;6.97;6.10;;;;;;;;;;5050647;28;20455;-55
2021/12/17 10:39:01;;;;;;;;;;;;;;;;;;5052673;28;20445;-51
2021/12/17 10:41:27;;;;;;;7.72;5.68;;;;;;;;;;5052530;28;19909;-52
2021/12/17 10:43:59;;;;;;;6.43;5.43;;;;;;;;;;5052466;28;20487;-53
2021/12/17 10:46:31;;;;;;;7.00;5.50;;;;;;;;;;5052189;28;20113;-53
2021/12/17 10:49:13;;;;;;;8.48;6.20;;;;;;;;;;5036931;28;20120;-55
2021/12/17 10:54:09;;;;;;;11.80;6.35;;;;;;;;;;5032701;28;20137;-54
2021/12/17 10:56:44;;;;;;;9.63;6.80;;;;;;;;;;5032260;28;20387;-55
2021/12/17 10:59:12;;;;;;;8.13;6.43;;;;;;;;;;5031937;28;20128;-54
2021/12/17 11:01:54;;;;;;;9.63;6.70;;;;;;;;;;5038525;28;20528;-53
2021/12/17 11:04:28;;;;;;;8.00;6.55;;;;;;;;;;5052391;28;20098;-56
2021/12/17 11:07:01;;;;;;;8.75;6.75;;;;;;;;;;5051890;28;20478;-51
2021/12/17 11:09:34;;;;;;;10.05;7.50;;;;;;;;;;5051973;28;20070;-55
2021/12/17 11:12:02;;;;;;;13.52;8.05;;;;;;;;;;5052213;28;20366;-53
2021/12/17 11:14:28;;;;;;;10.02;7.47;;;;;;;;;;5052239;28;20349;-55
2021/12/17 11:16:55;;;;;;;13.80;8.15;;;;;;;;;;5051193;28;20029;-53
2021/12/17 11:19:21;;;;;;;11.23;7.85;;;;;;;;;;5051420;28;20095;-52
2021/12/17 11:21:47;;;;;;;11.20;8.00;;;;;;;;;;5051491;28;20036;-55
2021/12/17 11:24:14;;;;;;;8.30;7.25;;;;;;;;;;5051799;28;20044;-52
2021/12/17 11:26:40;;;;;;;7.47;6.68;;;;;;;;;;5052026;28;20056;-52
2021/12/17 11:29:07;;;;;;;8.70;7.25;;;;;;;;;;5048594;28;20115;-54
2021/12/17 11:31:33;;;;;;;12.27;8.45;;;;;;;;;;5032024;28;20061;-52
2021/12/17 11:34:02;;;;;;;8.90;7.15;;;;;;;;;;5032138;28;20484;-52
2021/12/17 11:36:29;;;;;;;10.50;8.23;;;;;;;;;;5032642;28;20033;-54
2021/12/17 11:39:00;;;;;;;10.65;9.15;;;;;;;;;;5035656;28;20379;-51
2021/12/17 11:41:41;;;;;;;9.52;7.40;;;;;;;;;;5037218;28;20064;-53
2021/12/17 11:44:09;;;;;;;9.20;7.80;;;;;;;;;;5036179;28;20108;-53
2021/12/17 11:46:35;;;;;;;11.48;7.80;;;;;;;;;;5035799;28;20044;-55
2021/12/17 11:49:06;;;;;;;14.60;7.22;;;;;;;;;;5040114;28;20024;-53
2021/12/17 11:51:33;;;;;;;9.13;7.57;;;;;;;;;;5043354;28;20112;-54
2021/12/17 11:54:04;;;;;;;11.77;8.63;;;;;;;;;;5048990;28;20222;-56
2021/12/17 11:56:52;;;;;;;9.85;8.73;;;;;;;;;;5041765;28;20040;-55
2021/12/17 11:59:25;;;;;;;9.20;7.90;;;;;;;;;;5035059;28;20037;-50
2021/12/17 12:02:08;;;;;;;11.38;7.57;;;;;;;;;;5040676;28;20079;-51
2021/12/17 12:04:34;;;;;;;11.27;7.65;;;;;;;;;;5035449;28;20487;-54
2021/12/17 12:07:00;;;;;;;8.80;6.82;;;;;;;;;;5055410;28;20036;-54
2021/12/17 12:09:45;;;;;;;10.00;6.97;;;;;;;;;;5038476;28;20036;-52
2021/12/17 12:12:11;;;;;;;8.10;6.35;;;;;;;;;;5035809;28;20034;-53
2021/12/17 12:14:37;;;;;;;7.68;6.10;;;;;;;;;;5043616;28;20082;-51
2021/12/17 12:17:03;;;;;;;9.90;6.85;;;;;;;;;;5042226;28;20030;-55
2021/12/17 12:19:48;;;;;;;9.68;6.60;;;;;;;;;;5033485;28;20166;-54
2021/12/17 12:22:14;;;;;;;9.40;7.28;;;;;;;;;;5035084;28;20124;-55
2021/12/17 12:24:40;;;;;;;8.07;6.95;;;;;;;;;;5036207;28;20039;-55
2021/12/17 12:27:06;;;;;;;9.32;7.97;;;;;;;;;;5035114;28;20029;-56
2021/12/17 12:29:35;;;;;;;9.52;7.20;;;;;;;;;;5034793;28;20059;-52
2021/12/17 12:32:12;;;;;;;8.07;6.13;;;;;;;;;;5034933;28;20026;-53
2021/12/17 12:34:39;;;;;;;7.00;5.65;;;;;;;;;;5045309;28;20487;-56
2021/12/17 12:37:08;;;;;;;10.57;8.43;;;;;;;;;;5054896;28;20029;-54
2021/12/17 12:39:43;;;;;;;10.40;7.57;;;;;;;;;;5054680;28;20025;-53
2021/12/17 12:42:14;;;;;;;11.70;8.95;;;;;;;;;;5047476;28;20102;-54
2021/12/17 12:44:40;;;;;;;;;;;;;;;;;;5035461;28;20034;-52
2021/12/17 12:47:07;;;;;;;8.88;5.85;;;;;;;;;;5034362;28;20074;-56
2021/12/17 12:49:44;;;;;;;9.07;6.68;;;;;;;;;;5034404;28;20387;-54
2021/12/17 12:52:28;;;;;;;10.18;7.10;;;;;;;;;;5044525;28;20025;-51
2021/12/17 12:54:56;;;;;;;9.05;7.03;;;;;;;;;;5052074;28;20028;-54
2021/12/17 12:57:33;;;;;;;10.38;7.85;;;;;;;;;;5058014;28;20063;-54
2021/12/17 13:00:05;;;;;;;9.48;7.60;;;;;;;;;;5070825;28;20475;-55
2021/12/17 13:02:32;;;;;;;9.05;6.90;;;;;;;;;;5060467;28;20032;-56
2021/12/17 13:04:59;;;;;;;10.48;6.60;;;;;;;;;;5051932;28;20112;-56
2021/12/17 13:07:35;;;;;;;8.20;6.50;;;;;;;;;;5051351;28;20063;-55
2021/12/17 13:10:12;;;;;;;8.23;6.20;;;;;;;;;;5042167;28;20061;-52
2021/12/17 13:12:38;;;;;;;11.02;7.18;;;;;;;;;;5035630;28;20034;-54
2021/12/17 13:15:18;;;;;;;9.13;6.47;;;;;;;;;;5038260;28;20493;-54
2021/12/17 13:20:27;;;;;;;8.10;6.47;;;;;;;;;;5053540;28;20029;-54
2021/12/17 13:23:19;;;;;;;7.30;5.65;;;;;;;;;;5039891;28;20387;-55
2021/12/17 13:25:45;;;;;;;9.25;6.75;;;;;;;;;;5036261;28;20106;-55
2021/12/17 13:28:11;;;;;;;7.97;6.78;;;;;;;;;;5033405;28;20033;-55
2021/12/17 13:30:37;;;;;;;8.13;7.05;;;;;;;;;;5034534;28;20030;-54
2021/12/17 13:33:03;;;;;;;10.85;8.05;;;;;;;;;;5034292;28;20049;-55
2021/12/17 13:35:33;;;;;;;8.25;4.95;;;;;;;;;;5034852;28;20057;-53
2021/12/17 13:38:01;;;;;;;8.65;7.20;;;;;;;;;;5033262;28;20110;-54
2021/12/17 13:40:27;;;;;;;7.95;6.38;;;;;;;;;;5033877;28;20498;-55
2021/12/17 13:42:55;;;;;;;8.52;6.05;;;;;;;;;;5033767;28;20180;-53
2021/12/17 13:45:21;;;;;;;9.40;6.57;;;;;;;;;;5033780;28;20025;-53
2021/12/17 13:47:50;;;;;;;7.05;6.05;;;;;;;;;;5032772;28;20379;-51
2021/12/17 13:50:30;;;;;;;8.27;6.95;;;;;;;;;;5052416;28;20119;-52
2021/12/17 13:53:04;;;;;;;7.70;6.00;;;;;;;;;;5053773;28;20021;-55
2021/12/17 13:55:31;;;;;;;6.68;5.55;;;;;;;;;;5041215;28;20325;-55
2021/12/17 13:57:58;;;;;;;9.82;7.07;;;;;;;;;;5032950;28;20148;-51
2021/12/17 14:00:31;;;;;;;7.15;6.00;;;;;;;;;;5032199;28;20038;-52
2021/12/17 14:02:57;;;;;;;10.00;6.10;;;;;;;;;;5050002;28;20417;-54
2021/12/17 14:05:27;;;;;;;9.23;6.13;;;;;;;;;;5053495;28;20024;-54
2021/12/17 14:07:54;;;;;;;8.60;6.13;;;;;;;;;;5052565;28;20102;-56
2021/12/17 14:10:38;;;;;;;8.40;5.95;;;;;;;;;;5053142;28;20378;-54
2021/12/17 14:13:05;;;;;;;9.38;6.65;;;;;;;;;;5053494;28;20028;-52
2021/12/17 14:15:33;;;;;;;8.10;6.53;;;;;;;;;;5038680;28;20455;-50
2021/12/17 14:18:07;;;;;;;7.50;5.85;;;;;;;;;;5032613;28;20029;-52
2021/12/17 14:20:44;;;;;;;9.75;6.72;;;;;;;;;;5033257;28;20025;-55
2021/12/17 14:23:15;;;;;;;7.72;6.25;;;;;;;;;;5033035;28;20033;-52
2021/12/17 14:25:46;;;;;;;8.02;6.40;;;;;;;;;;5033141;28;20091;-51
2021/12/17 14:28:14;;;;;;;10.75;7.50;;;;;;;;;;5033651;28;20025;-53
2021/12/17 14:30:41;;;;;;;12.02;6.43;;;;;;;;;;5033056;28;20033;-55
2021/12/17 14:33:09;;;;;;;8.85;6.47;;;;;;;;;;5032911;28;20030;-52
2021/12/17 14:35:50;;;;;;;10.73;7.43;;;;;;;;;;5032500;28;20037;-53
2021/12/17 14:38:17;;;;;;;10.23;7.28;;;;;;;;;;5032281;28;20033;-52
2021/12/17 14:40:52;;;;;;;11.95;7.80;;;;;;;;;;5032407;28;20029;-51
2021/12/17 14:43:31;;;;;;;9.25;7.13;;;;;;;;;;5051673;28;20064;-51
2021/12/17 14:46:06;;;;;;;11.55;7.43;;;;;;;;;;5044278;28;20430;-52
2021/12/17 14:48:43;;;;;;;10.48;8.20;;;;;;;;;;5040180;28;20154;-51
2021/12/17 15:04:55;;;;;;;9.45;6.97;;;;;;;;;;5024992;28;20069;-51
2021/12/17 15:07:23;;;;;;;9.93;7.78;;;;;;;;;;5051810;28;20110;-50
2021/12/17 15:09:49;;;;;;;8.40;6.95;;;;;;;;;;5038811;28;20031;-53
2021/12/17 15:15:11;;;;;;;10.13;8.18;;;;;;;;;;5046591;28;20110;-49
2021/12/17 15:17:37;;;;;;;13.63;7.85;;;;;;;;;;5051867;28;20383;-51
2021/12/17 15:20:04;;;;;;;13.18;8.70;;;;;;;;;;5051637;28;20029;-54
2021/12/17 15:22:30;;;;;;;12.95;9.60;;;;;;;;;;5044079;28;20322;-53
2021/12/17 15:24:56;;;;;;;10.65;8.15;;;;;;;;;;5042137;28;20488;-50
2021/12/17 15:27:23;;;;;;;11.05;7.80;;;;;;;;;;5031866;28;20105;-52
2021/12/17 15:29:49;;;;;;;11.30;9.15;;;;;;;;;;5031182;28;20029;-50
2021/12/17 15:32:15;;;;;;;12.18;9.52;;;;;;;;;;5032058;28;20123;-54
2021/12/17 15:34:41;;;;;;;11.45;9.68;;;;;;;;;;5032152;28;20036;-49
2021/12/17 15:37:07;;;;;;;11.60;10.20;;;;;;;;;;5038841;28;20029;-52
2021/12/17 15:39:33;;;;;;;14.55;9.55;;;;;;;;;;5038785;28;20104;-54
2021/12/17 15:41:59;;;;;;;12.23;9.98;;;;;;;;;;5038575;28;20091;-52
2021/12/17 15:44:25;;;;;;;11.63;9.95;;;;;;;;;;5039784;28;20039;-54
2021/12/17 15:46:51;;;;;;;13.40;10.25;;;;;;;;;;5041344;28;20487;-54
2021/12/17 15:49:17;;;;;;;15.13;10.50;;;;;;;;;;5036921;28;20026;-52
2021/12/17 15:51:43;;;;;;;11.43;9.75;;;;;;;;;;5037064;28;20033;-53
2021/12/17 15:54:09;;;;;;;15.02;10.93;;;;;;;;;;5035896;28;20057;-54
2021/12/17 15:56:35;;;;;;;12.15;10.60;;;;;;;;;;5031197;28;20030;-53
2021/12/17 15:59:03;;;;;;;11.98;10.77;;;;;;;;;;5030983;28;20033;-51
2021/12/17 16:01:29;;;;;;;12.63;11.02;;;;;;;;;;5040226;28;20168;-54
2021/12/17 16:03:55;;;;;;;11.73;10.15;;;;;;;;;;5033125;28;20029;-54
2021/12/17 16:06:22;;;;;;;14.23;10.93;;;;;;;;;;5036399;28;20037;-52
2021/12/17 16:08:49;;;;;;;14.32;10.80;;;;;;;;;;5035706;28;20536;-50
2021/12/17 16:11:50;;;;;;;12.30;10.80;;;;;;;;;;5035132;28;20033;-48
2021/12/17 16:22:24;;;;;;;16.50;12.10;;;;;;;;;;5036176;28;19920;-54
2021/12/17 16:24:50;;;;;;;12.32;10.88;;;;;;;;;;5040869;28;20436;-54
2021/12/17 16:27:16;;;;;;;12.43;11.10;;;;;;;;;;5053967;28;20158;-52
2021/12/17 16:29:42;;;;;;;11.65;9.50;;;;;;;;;;5053002;28;20051;-51
2021/12/17 16:32:08;;;;;;;11.23;9.65;;;;;;;;;;5044321;28;20108;-52
2021/12/17 16:34:34;;;;;;;12.88;10.90;;;;;;;;;;5044635;28;20087;-53
2021/12/17 16:37:00;;;;;;;12.82;11.48;;;;;;;;;;5047365;28;20025;-53
2021/12/17 16:39:26;;;;;;;13.07;11.65;;;;;;;;;;5038986;28;20081;-53
2021/12/17 16:41:54;;;;;;;15.80;12.20;;;;;;;;;;5040749;28;20128;-52
2021/12/17 16:44:36;;;;;;;17.65;11.30;;;;;;;;;;5040587;28;20055;-54
2021/12/17 16:47:02;;;;;;;15.52;11.52;;;;;;;;;;5039764;28;20053;-51
2021/12/17 16:49:32;;;;;;;14.80;11.68;;;;;;;;;;5042089;28;20438;-54
2021/12/17 16:51:59;;;;;;;15.10;12.90;;;;;;;;;;5035760;28;20047;-53
2021/12/17 16:54:25;;;;;;;16.48;12.45;;;;;;;;;;5039575;28;20037;-54
2021/12/17 16:56:51;;;;;;;13.90;12.35;;;;;;;;;;5035822;28;20033;-53
2021/12/17 16:59:17;;;;;;;15.63;12.85;;;;;;;;;;5036576;28;20426;-55
2021/12/17 17:01:43;;;;;;;13.35;11.55;;;;;;;;;;5032863;28;20639;-51
2021/12/17 17:04:10;;;;;;;17.70;11.77;;;;;;;;;;5041208;28;20036;-54
2021/12/17 17:06:37;;;;;;;15.10;12.40;;;;;;;;;;5051191;28;20029;-54
2021/12/17 17:09:06;;;;;;;15.90;12.50;;;;;;;;;;5042699;28;20029;-55
2021/12/17 17:11:34;;;;;;;10.32;9.10;;;;;;;;;;5037810;28;20044;-56
2021/12/17 17:14:00;;;;;;;14.07;11.93;;;;;;;;;;5042987;28;20044;-54
2021/12/17 17:16:26;;;;;;;15.93;13.20;;;;;;;;;;5037514;28;20116;-54
2021/12/17 17:18:54;;;;;;;12.77;11.23;;;;;;;;;;5033925;28;20045;-52
2021/12/17 17:21:21;;;;;;;16.33;12.80;;;;;;;;;;5039407;28;20045;-54
2021/12/17 17:23:48;;;;;;;13.65;11.95;;;;;;;;;;5037272;28;20374;-53
2021/12/17 17:26:15;;;;;;;13.98;11.15;;;;;;;;;;5036401;28;20119;-56
2021/12/17 17:28:43;;;;;;;17.02;12.13;;;;;;;;;;5039287;28;20443;-51
2021/12/17 17:31:09;;;;;;;14.20;12.18;;;;;;;;;;5042592;28;20095;-53
2021/12/17 17:33:35;;;;;;;15.07;12.48;;;;;;;;;;5035304;28;20032;-55
2021/12/17 17:36:01;;;;;;;16.27;12.02;;;;;;;;;;5038429;28;20040;-55
2021/12/17 17:38:27;;;;;;;14.30;12.82;;;;;;;;;;5044533;28;20033;-52
2021/12/17 17:40:54;;;;;;;16.80;12.70;;;;;;;;;;5033704;28;20041;-53
2021/12/17 17:43:20;;;;;;;15.35;13.75;;;;;;;;;;5040343;28;20378;-52
2021/12/17 17:45:46;;;;;;;15.10;12.48;;;;;;;;;;5039639;28;20068;-54
2021/12/17 17:48:13;;;;;;;19.55;13.05;;;;;;;;;;5034878;28;20084;-52
2021/12/17 17:50:40;;;;;;;18.02;11.98;;;;;;;;;;5039683;28;20391;-52